createdAt,value
2018-06-14T00:02:37.274Z,2.80
2018-06-14T00:05:42.596Z,2.00
2018-06-14T00:08:49.522Z,2.20
2018-06-14T00:11:58.854Z,2.27
2018-06-14T00:15:03.855Z,2.20
2018-06-14T00:18:17.149Z,2.50
2018-06-14T00:21:32.027Z,2.50
2018-06-14T00:24:37.007Z,2.30
2018-06-14T00:27:42.781Z,2.93
2018-06-14T00:30:48.889Z,2.40
2018-06-14T00:34:02.534Z,2.47
2018-06-14T00:37:07.374Z,2.50
2018-06-14T00:40:12.356Z,2.23
2018-06-14T00:43:19.921Z,1.80
2018-06-14T00:46:31.012Z,2.40
2018-06-14T00:49:36.032Z,2.33
2018-06-14T00:52:41.263Z,2.63
2018-06-14T00:55:46.679Z,2.17
2018-06-14T00:58:56.325Z,2.30
2018-06-14T01:02:01.103Z,2.60
2018-06-14T01:05:05.774Z,2.50
2018-06-14T01:08:10.644Z,2.30
2018-06-14T01:11:17.151Z,2.30
2018-06-14T01:14:30.913Z,2.43
2018-06-14T01:17:35.549Z,2.73
2018-06-14T01:20:40.221Z,2.70
2018-06-14T01:23:44.912Z,2.63
2018-06-14T01:27:05.659Z,2.17
2018-06-14T01:30:10.368Z,2.33
2018-06-14T01:33:15.203Z,2.60
2018-06-14T01:36:27.884Z,2.40
2018-06-14T01:39:32.542Z,2.70
2018-06-14T01:42:40.697Z,2.50
2018-06-14T01:45:45.430Z,2.60
2018-06-14T01:48:50.515Z,2.63
2018-06-14T01:51:56.317Z,2.50
2018-06-14T01:55:01.389Z,2.80
2018-06-14T01:58:06.216Z,2.60
2018-06-14T02:01:10.806Z,2.40
2018-06-14T02:04:15.420Z,2.53
2018-06-14T02:07:23.061Z,2.67
2018-06-14T02:10:29.549Z,2.57
2018-06-14T02:13:37.595Z,2.73
2018-06-14T02:16:42.380Z,2.60
2018-06-14T02:19:48.481Z,3.00
2018-06-14T02:22:55.314Z,2.43
2018-06-14T02:26:01.130Z,2.73
2018-06-14T02:29:05.958Z,2.50
2018-06-14T02:32:10.546Z,2.60
2018-06-14T02:35:15.420Z,2.87
2018-06-14T02:38:22.303Z,2.93
2018-06-14T02:41:27.026Z,2.63
2018-06-14T02:44:31.718Z,2.80
2018-06-14T02:47:36.337Z,2.77
2018-06-14T02:50:40.953Z,2.87
2018-06-14T02:53:48.364Z,2.47
2018-06-14T02:56:58.000Z,2.70
2018-06-14T03:00:02.662Z,3.00
2018-06-14T03:03:07.430Z,2.40
2018-06-14T03:06:12.002Z,3.63
2018-06-14T03:09:17.483Z,3.03
2018-06-14T03:12:25.782Z,2.87
2018-06-14T03:15:31.635Z,2.83
2018-06-14T03:18:41.958Z,2.70
2018-06-14T03:22:03.318Z,3.30
2018-06-14T03:25:08.051Z,3.10
2018-06-14T03:28:13.187Z,3.23
2018-06-14T03:31:18.804Z,2.83
2018-06-14T03:34:27.284Z,2.60
2018-06-14T03:37:33.829Z,2.87
2018-06-14T03:40:44.315Z,3.10
2018-06-14T03:43:50.873Z,2.87
2018-06-14T03:46:58.109Z,3.40
2018-06-14T03:50:02.960Z,2.77
2018-06-14T03:53:11.727Z,3.00
2018-06-14T03:56:20.919Z,3.00
2018-06-14T03:59:31.102Z,3.17
2018-06-14T04:02:35.961Z,3.00
2018-06-14T04:05:40.519Z,3.37
2018-06-14T04:08:45.140Z,2.90
2018-06-14T04:11:53.561Z,3.23
2018-06-14T04:15:01.821Z,2.90
2018-06-14T04:18:06.359Z,3.13
2018-06-14T04:21:11.013Z,3.20
2018-06-14T04:24:18.068Z,3.43
2018-06-14T04:27:31.919Z,3.60
2018-06-14T04:30:36.490Z,3.80
2018-06-14T04:33:41.074Z,3.43
2018-06-14T04:36:46.122Z,3.23
2018-06-14T04:39:55.165Z,3.60
2018-06-14T04:42:59.797Z,3.30
2018-06-14T04:46:04.451Z,3.03
2018-06-14T04:49:09.874Z,3.70
2018-06-14T04:52:14.456Z,5.60
2018-06-14T04:58:35.020Z,3.30
2018-06-14T05:01:39.739Z,4.00
2018-06-14T05:04:44.572Z,4.00
2018-06-14T05:08:01.347Z,3.77
2018-06-14T05:11:06.009Z,3.40
2018-06-14T05:14:11.019Z,3.97
2018-06-14T05:17:17.506Z,3.87
2018-06-14T05:20:26.120Z,4.70
2018-06-14T05:23:33.794Z,3.80
2018-06-14T05:26:38.494Z,3.37
2018-06-14T05:29:43.183Z,4.17
2018-06-14T05:32:56.630Z,3.47
2018-06-14T05:36:03.147Z,3.47
2018-06-14T05:39:10.940Z,2.70
2018-06-14T05:42:16.710Z,4.40
2018-06-14T05:45:25.017Z,3.03
2018-06-14T05:48:30.120Z,2.60
2018-06-14T05:51:35.159Z,2.63
2018-06-14T05:54:39.825Z,2.90
2018-06-14T05:57:45.992Z,3.37
2018-06-14T06:00:59.547Z,3.20
2018-06-14T06:04:04.336Z,2.97
2018-06-14T06:07:08.986Z,3.13
2018-06-14T06:10:18.927Z,2.93
2018-06-14T06:13:38.690Z,2.63
2018-06-14T06:16:43.192Z,2.72
2018-06-14T06:19:48.201Z,2.50
2018-06-14T06:22:52.798Z,2.30
2018-06-14T06:25:58.812Z,2.57
2018-06-14T06:29:04.049Z,2.33
2018-06-14T06:32:08.784Z,2.47
2018-06-14T06:35:13.270Z,2.20
2018-06-14T06:38:20.960Z,2.47
2018-06-14T06:41:25.639Z,2.33
2018-06-14T06:44:33.171Z,2.27
2018-06-14T06:47:37.679Z,2.53
2018-06-14T06:50:45.084Z,2.60
2018-06-14T06:53:49.918Z,2.70
2018-06-14T06:56:54.523Z,3.40
2018-06-14T06:59:59.399Z,2.30
2018-06-14T07:03:03.979Z,2.60
2018-06-14T07:06:08.805Z,2.22
2018-06-14T07:09:13.547Z,2.50
2018-06-14T07:12:18.128Z,2.60
2018-06-14T07:15:22.446Z,2.80
2018-06-14T07:18:26.766Z,3.03
2018-06-14T07:21:35.190Z,2.73
2018-06-14T07:24:42.770Z,3.83
2018-06-14T07:27:51.257Z,2.63
2018-06-14T07:30:58.019Z,2.50
2018-06-14T07:34:04.071Z,2.67
2018-06-14T07:37:10.736Z,2.73
2018-06-14T07:40:19.948Z,2.90
2018-06-14T07:43:24.207Z,3.10
2018-06-14T07:46:34.577Z,2.97
2018-06-14T07:49:38.782Z,3.50
2018-06-14T07:52:44.938Z,3.17
2018-06-14T07:55:51.626Z,3.47
2018-06-14T07:58:59.408Z,3.13
2018-06-14T08:02:04.417Z,3.20
2018-06-14T08:05:08.837Z,3.30
2018-06-14T08:08:13.805Z,3.40
2018-06-14T08:11:21.264Z,3.70
2018-06-14T08:14:26.177Z,3.70
2018-06-14T08:17:31.385Z,3.60
2018-06-14T08:20:36.000Z,3.80
2018-06-14T08:23:43.744Z,3.40
2018-06-14T08:26:50.958Z,3.27
2018-06-14T08:29:56.446Z,3.57
2018-06-14T08:33:02.576Z,4.10
2018-06-14T08:36:09.773Z,3.87
2018-06-14T08:39:14.660Z,3.17
2018-06-14T08:42:30.745Z,3.27
2018-06-14T08:45:35.688Z,3.37
2018-06-14T08:48:40.656Z,3.07
2018-06-14T08:51:46.157Z,3.70
2018-06-14T08:54:51.237Z,3.37
2018-06-14T08:57:56.235Z,3.23
2018-06-14T09:01:03.480Z,3.20
2018-06-14T09:04:08.389Z,3.00
2018-06-14T09:07:13.307Z,3.40
2018-06-14T09:10:19.111Z,3.47
2018-06-14T09:13:27.251Z,3.13
2018-06-14T09:16:47.587Z,3.23
2018-06-14T09:19:51.832Z,3.00
2018-06-14T09:22:57.509Z,2.63
2018-06-14T09:26:03.666Z,3.33
2018-06-14T09:29:17.566Z,3.20
2018-06-14T09:32:22.635Z,3.27
2018-06-14T09:35:27.399Z,2.83
2018-06-14T09:38:35.119Z,2.80
2018-06-14T09:41:40.991Z,2.85
2018-06-14T09:44:45.963Z,2.55
2018-06-14T09:47:55.436Z,2.52
2018-06-14T09:51:02.070Z,2.70
2018-06-14T09:54:07.100Z,2.92
2018-06-14T09:57:11.435Z,2.98
2018-06-14T10:00:16.214Z,2.60
2018-06-14T10:03:21.807Z,2.75
2018-06-14T10:06:28.065Z,2.40
2018-06-14T10:09:37.554Z,2.35
2018-06-14T10:12:47.608Z,2.60
2018-06-14T10:15:54.785Z,2.40
2018-06-14T10:19:04.124Z,2.30
2018-06-14T10:22:12.139Z,2.93
2018-06-14T10:25:18.371Z,2.60
2018-06-14T10:28:27.336Z,2.67
2018-06-14T10:31:34.488Z,2.87
2018-06-14T10:34:45.177Z,2.57
2018-06-14T10:37:50.182Z,2.43
2018-06-14T10:40:55.061Z,2.53
2018-06-14T10:44:00.499Z,2.43
2018-06-14T10:47:05.718Z,2.70
2018-06-14T10:50:10.441Z,2.70
2018-06-14T10:53:15.080Z,2.77
2018-06-14T10:56:22.752Z,2.60
2018-06-14T10:59:27.195Z,2.73
2018-06-14T11:02:32.028Z,2.20
2018-06-14T11:05:36.640Z,2.40
2018-06-14T11:08:42.199Z,2.17
2018-06-14T11:11:46.786Z,2.20
2018-06-14T11:14:51.528Z,2.33
2018-06-14T11:17:56.078Z,3.23
2018-06-14T11:21:01.430Z,2.93
2018-06-14T11:24:06.644Z,2.70
2018-06-14T11:27:11.824Z,2.50
2018-06-14T11:30:17.399Z,3.10
2018-06-14T11:33:21.921Z,2.60
2018-06-14T11:36:27.652Z,2.80
2018-06-14T11:39:35.263Z,2.67
2018-06-14T11:42:41.824Z,2.60
2018-06-14T11:45:52.908Z,2.50
2018-06-14T11:48:58.090Z,3.00
2018-06-14T11:52:02.714Z,2.93
2018-06-14T11:55:07.583Z,3.03
2018-06-14T11:58:13.089Z,2.90
2018-06-14T12:01:18.202Z,2.53
2018-06-14T12:04:22.476Z,2.87
2018-06-14T12:07:28.656Z,2.87
2018-06-14T12:10:34.248Z,2.20
2018-06-14T12:13:38.837Z,2.80
2018-06-14T12:16:43.299Z,3.57
2018-06-14T12:19:47.623Z,3.37
2018-06-14T12:22:52.369Z,2.40
2018-06-14T12:25:56.994Z,3.83
2018-06-14T12:29:02.440Z,2.90
2018-06-14T12:32:09.926Z,2.80
2018-06-14T12:35:14.394Z,2.80
2018-06-14T12:38:21.144Z,2.90
2018-06-14T12:41:26.066Z,2.67
2018-06-14T12:44:30.366Z,2.80
2018-06-14T12:47:35.244Z,2.50
2018-06-14T12:50:39.573Z,3.10
2018-06-14T12:53:44.928Z,2.50
2018-06-14T12:56:49.560Z,2.70
2018-06-14T12:59:54.686Z,2.40
2018-06-14T13:02:59.103Z,2.67
2018-06-14T13:06:03.557Z,2.50
2018-06-14T13:09:10.723Z,2.33
2018-06-14T13:12:14.898Z,2.93
2018-06-14T13:15:20.557Z,2.70
2018-06-14T13:18:25.003Z,2.50
2018-06-14T13:21:29.536Z,2.53
2018-06-14T13:24:41.401Z,2.40
2018-06-14T13:27:45.915Z,2.60
2018-06-14T13:30:50.439Z,3.07
2018-06-14T13:33:55.962Z,2.40
2018-06-14T13:37:00.459Z,2.83
2018-06-14T13:40:05.149Z,5.43
2018-06-14T13:43:24.523Z,2.67
2018-06-14T13:46:29.184Z,2.43
2018-06-14T13:49:35.349Z,2.70
2018-06-14T13:52:40.256Z,2.30
2018-06-14T13:55:44.796Z,2.70
2018-06-14T13:58:50.144Z,2.70
2018-06-14T14:01:55.988Z,2.30
2018-06-14T14:05:02.835Z,2.00
2018-06-14T14:08:07.197Z,2.60
2018-06-14T14:11:12.762Z,2.30
2018-06-14T14:14:16.970Z,4.20
2018-06-14T14:17:21.837Z,2.80
2018-06-14T14:20:27.262Z,2.20
2018-06-14T14:23:33.650Z,3.03
2018-06-14T14:26:38.012Z,2.80
2018-06-14T14:29:43.641Z,2.27
2018-06-14T14:33:00.420Z,2.90
2018-06-14T14:36:05.054Z,2.10
2018-06-14T14:39:12.329Z,2.43
2018-06-14T14:42:16.869Z,2.50
2018-06-14T14:45:22.279Z,3.87
2018-06-14T14:48:33.179Z,7.30
2018-06-14T14:51:39.798Z,2.27
2018-06-14T15:01:13.680Z,2.67
2018-06-14T15:04:18.968Z,2.67
2018-06-14T15:11:01.103Z,2.40
2018-06-14T15:14:15.254Z,2.60
2018-06-14T15:17:19.757Z,2.60
2018-06-14T15:20:38.192Z,2.30
2018-06-14T15:23:46.408Z,2.40
2018-06-14T15:26:58.972Z,3.00
2018-06-14T15:30:03.452Z,2.63
2018-06-14T15:33:08.392Z,2.60
2018-06-14T15:36:12.620Z,2.50
2018-06-14T15:39:16.969Z,9.47
2018-06-14T15:42:21.208Z,3.17
2018-06-14T15:45:25.534Z,2.60
2018-06-14T15:48:30.676Z,3.03
2018-06-14T15:51:35.035Z,2.93
2018-06-14T15:54:39.826Z,5.37
2018-06-14T15:57:44.253Z,3.50
2018-06-14T16:00:48.645Z,2.87
2018-06-14T16:03:52.901Z,2.97
2018-06-14T16:06:57.468Z,8.03
2018-06-14T16:10:04.363Z,3.23
2018-06-14T16:13:09.041Z,2.90
2018-06-14T16:16:14.023Z,3.03
2018-06-14T16:19:19.445Z,3.43
2018-06-14T16:22:54.120Z,4.73
2018-06-14T16:25:58.331Z,3.50
2018-06-14T16:29:02.686Z,4.00
2018-06-14T16:32:07.324Z,3.90
2018-06-14T16:35:11.602Z,4.20
2018-06-14T16:38:16.557Z,3.33
2018-06-14T16:41:20.925Z,3.80
2018-06-14T16:44:25.290Z,3.73
2018-06-14T16:47:31.801Z,3.70
2018-06-14T16:50:38.959Z,3.20
2018-06-14T16:53:43.284Z,3.93
2018-06-14T16:56:47.612Z,4.80
2018-06-14T16:59:52.000Z,4.03
2018-06-14T17:02:56.431Z,3.80
2018-06-14T17:06:00.780Z,5.27
2018-06-14T17:09:07.389Z,4.30
2018-06-14T17:12:11.666Z,4.60
2018-06-14T17:15:16.796Z,4.87
2018-06-14T17:18:22.159Z,4.23
2018-06-14T17:21:26.161Z,4.43
2018-06-14T17:24:31.428Z,4.50
2018-06-14T17:27:36.727Z,4.40
2018-06-14T17:30:40.983Z,4.23
2018-06-14T17:33:45.348Z,4.27
2018-06-14T17:36:49.709Z,4.30
2018-06-14T17:39:54.744Z,4.70
2018-06-14T17:42:59.047Z,4.57
2018-06-14T17:46:03.301Z,4.50
2018-06-14T17:49:07.569Z,4.10
2018-06-14T17:52:11.932Z,4.47
2018-06-14T17:55:16.814Z,4.43
2018-06-14T17:58:21.707Z,4.57
2018-06-14T18:01:26.241Z,4.70
2018-06-14T18:04:30.919Z,4.17
2018-06-14T18:07:36.042Z,4.37
2018-06-14T18:10:39.984Z,5.97
2018-06-14T18:13:44.253Z,4.87
2018-06-14T18:16:48.915Z,5.10
2018-06-14T18:19:53.275Z,7.00
2018-06-14T18:22:58.484Z,4.90
2018-06-14T18:26:02.744Z,4.43
2018-06-14T18:29:07.064Z,4.97
2018-06-14T18:32:13.080Z,4.67
2018-06-14T18:35:18.790Z,4.93
2018-06-14T18:38:23.136Z,4.60
2018-06-14T18:41:28.618Z,5.50
2018-06-14T18:44:34.177Z,5.13
2018-06-14T18:47:39.256Z,5.00
2018-06-14T18:50:44.344Z,5.27
2018-06-14T18:53:48.687Z,5.33
2018-06-14T18:56:53.052Z,5.30
2018-06-14T18:59:57.507Z,4.87
2018-06-14T19:03:01.784Z,4.83
2018-06-14T19:06:06.272Z,4.90
2018-06-14T19:09:11.433Z,5.60
2018-06-14T19:12:15.728Z,4.67
2018-06-14T19:15:20.835Z,5.53
2018-06-14T19:18:25.064Z,5.50
2018-06-14T19:21:30.164Z,5.57
2018-06-14T19:24:39.979Z,5.30
2018-06-14T19:27:46.069Z,4.97
2018-06-14T19:30:50.617Z,5.37
2018-06-14T19:33:54.965Z,5.13
2018-06-14T19:36:59.238Z,5.90
2018-06-14T19:40:03.298Z,5.83
2018-06-14T19:43:07.747Z,5.30
2018-06-14T19:46:12.783Z,5.37
2018-06-14T19:49:18.532Z,5.67
2018-06-14T19:52:22.973Z,5.33
2018-06-14T19:55:27.952Z,5.80
2018-06-14T19:58:33.307Z,5.40
2018-06-14T20:01:41.016Z,5.60
2018-06-14T20:04:45.705Z,5.87
2018-06-14T20:07:49.976Z,6.27
2018-06-14T20:10:54.285Z,5.53
2018-06-14T20:13:58.803Z,5.77
2018-06-14T20:17:03.641Z,5.50
2018-06-14T20:20:09.203Z,5.57
2018-06-14T20:23:13.866Z,5.17
2018-06-14T20:26:19.293Z,5.60
2018-06-14T20:29:23.876Z,5.60
2018-06-14T20:32:28.206Z,5.50
2018-06-14T20:35:32.892Z,5.00
2018-06-14T20:38:37.061Z,5.77
2018-06-14T20:41:41.922Z,5.13
2018-06-14T20:44:46.262Z,5.73
2018-06-14T20:47:50.498Z,5.87
2018-06-14T20:50:54.805Z,6.03
2018-06-14T20:53:59.151Z,5.90
2018-06-14T20:57:03.434Z,6.20
2018-06-14T21:00:07.704Z,5.97
2018-06-14T21:03:12.250Z,5.90
2018-06-14T21:06:16.596Z,5.87
2018-06-14T21:09:21.175Z,5.07
2018-06-14T21:12:26.050Z,5.40
2018-06-14T21:15:30.383Z,5.80
2018-06-14T21:18:34.925Z,5.43
2018-06-14T21:21:40.381Z,5.53
2018-06-14T21:24:44.292Z,5.70
2018-06-14T21:27:48.470Z,5.93
2018-06-14T21:30:53.316Z,6.10
2018-06-14T21:33:57.731Z,5.60
2018-06-14T21:37:02.034Z,5.67
2018-06-14T21:40:06.384Z,5.60
2018-06-14T21:43:10.618Z,5.50
2018-06-14T21:46:16.782Z,6.20
2018-06-14T21:49:21.111Z,5.67
2018-06-14T21:52:26.756Z,6.70
2018-06-14T21:55:31.018Z,5.63
2018-06-14T21:58:35.648Z,6.07
2018-06-14T22:01:40.068Z,6.17
2018-06-14T22:04:44.333Z,6.73
2018-06-14T22:07:48.987Z,6.13
2018-06-14T22:10:54.594Z,5.90
2018-06-14T22:13:59.126Z,6.10
2018-06-14T22:17:03.475Z,6.00
2018-06-14T22:20:07.913Z,6.40
2018-06-14T22:23:12.205Z,6.23
2018-06-14T22:26:17.184Z,6.57
2018-06-14T22:29:21.842Z,6.10
2018-06-14T22:32:26.161Z,7.43
2018-06-14T22:35:30.963Z,6.90
2018-06-14T22:38:35.550Z,7.37
2018-06-14T22:41:39.802Z,8.50
2018-06-14T22:44:44.765Z,7.73
2018-06-14T22:47:49.084Z,7.50
2018-06-14T22:51:05.858Z,7.77
2018-06-14T22:54:10.164Z,8.73
2018-06-14T22:57:14.577Z,8.97
2018-06-14T23:02:33.500Z,9.27
2018-06-14T23:05:38.717Z,9.37
2018-06-14T23:08:43.993Z,9.37
2018-06-14T23:11:48.383Z,9.47
2018-06-14T23:14:52.693Z,9.60
2018-06-14T23:17:57.430Z,8.40
2018-06-14T23:21:02.773Z,8.60
2018-06-14T23:24:07.467Z,8.90
2018-06-14T23:27:12.213Z,9.37
2018-06-14T23:30:16.780Z,9.90
2018-06-14T23:33:23.643Z,9.57
2018-06-14T23:36:32.992Z,9.37
2018-06-14T23:39:37.824Z,9.60
2018-06-14T23:42:42.605Z,9.33
2018-06-14T23:45:48.010Z,9.80
2018-06-14T23:48:53.022Z,8.63
2018-06-14T23:51:57.513Z,9.03
2018-06-14T23:55:01.900Z,9.20
2018-06-14T23:58:06.889Z,9.67
